Time;durP1;ratioP1;P1;durP2;ratioP2;P2;SDS_P1;SDS_P2;PMS_P1;PMS_P2;Temp;Humidity;BMP_temperature;BMP_pressure;BME280_temperature;BME280_humidity;BME280_pressure;Samples;Min_cycle;Max_cycle;Signal;HPM_P1;HPM_P2
2022/04/28 06:41:07;;;;;;;13.93;7.17;;;;;;;33.36;50.16;100992.69;5171697;27;20770;-69
2022/04/28 06:43:34;;;;;;;11.13;5.43;;;;;;;33.68;49.41;100984.31;5149374;27;20874;-69
2022/04/28 06:46:12;;;;;;;16.80;6.13;;;;;;;34.18;48.61;100969.06;5149351;27;20464;-69
2022/04/28 06:48:38;;;;;;;10.83;7.13;;;;;;;34.42;47.84;100964.66;5150481;27;20461;-69
2022/04/28 06:51:04;;;;;;;9.73;7.30;;;;;;;34.26;47.75;100970.41;5149109;27;20475;-68
2022/04/28 06:53:30;;;;;;;12.23;7.37;;;;;;;34.61;46.73;100974.75;5149139;27;20422;-68
2022/04/28 06:55:56;;;;;;;14.33;11.20;;;;;;;34.31;47.69;100983.81;5150568;27;20436;-72
2022/04/28 06:58:22;;;;;;;18.03;12.00;;;;;;;33.96;48.72;100991.00;5150334;27;20390;-68
2022/04/28 07:00:49;;;;;;;13.20;8.87;;;;;;;33.83;48.85;100984.28;5150317;27;20448;-69
2022/04/28 07:03:15;;;;;;;14.70;8.40;;;;;;;34.09;48.02;100978.81;5148843;27;20788;-69
2022/04/28 07:05:41;;;;;;;12.47;7.73;;;;;;;34.17;47.63;100972.84;5148843;27;20505;-69
2022/04/28 07:08:07;;;;;;;12.40;8.20;;;;;;;34.32;47.59;100975.47;5148896;27;20432;-68
2022/04/28 07:10:37;;;;;;;13.30;9.50;;;;;;;34.03;48.08;100988.81;5148821;27;20526;-68
2022/04/28 07:13:03;;;;;;;15.63;10.00;;;;;;;33.74;48.71;100995.88;5141887;27;21013;-69
2022/04/28 07:15:29;;;;;;;15.40;9.33;;;;;;;33.41;49.16;100990.84;5142871;27;20462;-69
2022/04/28 07:17:55;;;;;;;11.10;7.50;;;;;;;33.88;48.14;100995.03;5135738;27;20422;-69
2022/04/28 07:20:21;;;;;;;14.20;9.20;;;;;;;33.33;48.74;100991.38;5148733;27;20994;-70
2022/04/28 07:22:47;;;;;;;9.80;6.70;;;;;;;33.17;48.62;100999.72;5135791;27;20431;-68
2022/04/28 07:25:13;;;;;;;10.90;6.30;;;;;;;33.18;48.26;101018.25;5144363;27;20418;-68
2022/04/28 07:27:39;;;;;;;12.23;7.47;;;;;;;33.36;48.08;101012.31;5148380;27;20469;-68
2022/04/28 07:30:06;;;;;;;12.80;6.50;;;;;;;33.88;47.35;101021.13;5148602;27;20506;-70
2022/04/28 07:32:33;;;;;;;11.17;8.13;;;;;;;33.86;46.63;101017.91;5134277;27;20950;-70
2022/04/28 07:35:00;;;;;;;14.30;8.30;;;;;;;33.71;47.58;101023.34;5127094;28;20930;-69
2022/04/28 07:37:26;;;;;;;12.57;8.23;;;;;;;33.55;47.97;101017.97;5127524;28;20895;-68
2022/04/28 07:39:52;;;;;;;16.90;7.97;;;;;;;33.42;47.64;101016.66;5126384;27;20470;-72
2022/04/28 07:42:18;;;;;;;21.87;10.60;;;;;;;33.78;46.79;101023.84;5113129;28;20611;-71
2022/04/28 07:44:44;;;;;;;11.57;8.20;;;;;;;33.74;46.43;101025.47;5114799;28;20419;-69
2022/04/28 07:47:10;;;;;;;10.90;7.80;;;;;;;33.81;46.63;101023.28;5113549;28;20472;-68
2022/04/28 07:49:36;;;;;;;11.80;8.53;;;;;;;34.06;46.28;101009.78;5113551;28;20455;-67
2022/04/28 07:52:03;;;;;;;12.80;8.83;;;;;;;33.72;46.76;101012.28;5113596;28;20827;-69
2022/04/28 07:54:29;;;;;;;15.13;10.00;;;;;;;33.51;47.34;101021.47;5113125;28;20415;-69
2022/04/28 07:56:55;;;;;;;15.97;10.00;;;;;;;33.42;47.03;101022.03;5096305;28;21016;-70
2022/04/28 07:59:21;;;;;;;12.00;8.20;;;;;;;33.67;47.12;101020.38;5112040;28;20420;-70
2022/04/28 08:01:47;;;;;;;15.13;9.53;;;;;;;34.06;45.84;101015.16;5112691;28;20431;-69
2022/04/28 08:04:13;;;;;;;11.23;7.60;;;;;;;34.21;45.63;101008.91;5097455;28;20455;-71
2022/04/28 08:06:39;;;;;;;14.60;10.37;;;;;;;34.40;45.09;101009.88;5112577;28;20430;-70
2022/04/28 08:09:05;;;;;;;18.63;11.07;;;;;;;34.46;45.31;101008.00;5098409;28;20464;-69
2022/04/28 08:11:31;;;;;;;16.17;9.47;;;;;;;34.44;45.35;101015.56;5112879;28;20975;-68
2022/04/28 08:13:57;;;;;;;14.90;9.53;;;;;;;34.26;45.32;101016.97;5113302;28;20513;-68
2022/04/28 08:16:23;;;;;;;26.27;10.93;;;;;;;34.14;45.29;101019.19;5101253;28;20433;-68
2022/04/28 08:18:49;;;;;;;12.90;9.67;;;;;;;34.42;45.35;101015.00;5111727;28;20967;-69
2022/04/28 08:21:16;;;;;;;17.67;11.20;;;;;;;34.58;44.67;101021.13;5112688;27;20477;-69
2022/04/28 08:23:42;;;;;;;18.50;9.27;;;;;;;34.52;44.89;101019.56;5111045;28;20443;-71
2022/04/28 08:26:08;;;;;;;19.03;9.30;;;;;;;34.50;44.42;101021.69;5110817;28;20973;-71
2022/04/28 08:28:34;;;;;;;18.63;10.57;;;;;;;34.83;44.71;101020.16;5111078;28;20992;-69
2022/04/28 08:31:00;;;;;;;14.47;9.90;;;;;;;35.23;43.56;101022.53;5111195;28;20431;-70
2022/04/28 08:33:26;;;;;;;12.80;9.20;;;;;;;35.48;42.88;101021.56;5111657;28;20434;-70
2022/04/28 08:35:52;;;;;;;17.67;9.10;;;;;;;35.58;42.76;101011.72;5112014;28;20435;-69
2022/04/28 08:38:18;;;;;;;24.90;18.90;;;;;;;35.64;42.82;101002.50;5110690;28;20427;-69
2022/04/28 08:40:48;;;;;;;20.47;10.90;;;;;;;35.69;42.30;100997.84;5111073;28;20472;-69
2022/04/28 08:46:52;;;;;;;17.50;12.20;;;;;;;35.75;42.33;101017.47;5110335;28;20465;-69
2022/04/28 08:49:20;;;;;;;17.70;10.13;;;;;;;35.91;42.20;101023.50;5110537;28;20572;-69
2022/04/28 08:51:47;;;;;;;15.47;10.13;;;;;;;35.93;41.57;101040.25;5111371;28;20477;-70
2022/04/28 08:54:14;;;;;;;23.00;12.00;;;;;;;35.75;41.64;101034.47;5111025;28;20439;-69
2022/04/28 08:56:41;;;;;;;22.30;9.73;;;;;;;35.51;42.33;101031.75;5095359;28;20451;-69
2022/04/28 08:59:07;;;;;;;13.50;8.60;;;;;;;35.41;43.09;101037.22;5112495;28;20424;-70
2022/04/28 09:01:34;;;;;;;50.77;34.30;;;;;;;35.67;42.95;101040.50;5113742;28;20912;-69
2022/04/28 09:04:03;;;;;;;34.80;26.27;;;;;;;35.88;42.83;101043.78;5112261;28;20420;-70
2022/04/28 09:06:34;;;;;;;30.20;22.10;;;;;;;36.12;41.94;101046.50;5112033;28;20874;-68
2022/04/28 09:09:04;;;;;;;20.63;13.00;;;;;;;36.22;41.86;101057.19;5094041;28;20435;-72
2022/04/28 09:11:39;;;;;;;22.00;14.50;;;;;;;36.09;41.11;101060.56;5110342;28;20424;-71
2022/04/28 09:14:15;;;;;;;16.83;14.60;;;;;;;36.07;41.83;101046.56;5110182;28;20954;-71
2022/04/28 09:16:49;;;;;;;23.90;13.57;;;;;;;36.04;41.94;101050.66;5110239;28;20424;-71
2022/04/28 09:19:25;;;;;;;26.27;12.50;;;;;;;35.99;41.59;101048.00;5110126;28;20462;-71
2022/04/28 09:22:09;;;;;;;16.50;12.47;;;;;;;35.87;41.69;101060.28;5110187;28;20420;-72
2022/04/28 09:24:39;;;;;;;19.00;12.23;;;;;;;35.79;41.10;101061.72;5112928;28;20396;-72
2022/04/28 09:27:05;;;;;;;15.27;10.10;;;;;;;35.80;41.50;101057.91;5111798;28;20443;-72
2022/04/28 09:29:39;;;;;;;17.23;10.73;;;;;;;35.94;41.75;101060.75;5113210;28;20430;-72
2022/04/28 09:32:10;;;;;;;19.80;11.70;;;;;;;35.90;40.85;101063.19;5111774;28;20515;-71
2022/04/28 09:34:46;;;;;;;17.30;11.50;;;;;;;35.79;41.52;101064.41;5111750;28;20431;-72
2022/04/28 09:37:19;;;;;;;17.97;11.47;;;;;;;35.73;41.63;101065.56;5111667;28;20419;-71
2022/04/28 09:42:39;;;;;;;19.03;10.53;;;;;;;35.39;41.92;101073.66;5113195;28;20395;-69
2022/04/28 09:45:07;;;;;;;19.03;11.03;;;;;;;35.33;42.79;101072.09;5111551;28;20469;-73
2022/04/28 09:47:35;;;;;;;19.93;12.40;;;;;;;35.39;43.87;101065.56;5111718;28;20516;-69
2022/04/28 09:50:01;;;;;;;23.97;11.33;;;;;;;35.49;42.50;101063.63;5112838;28;20928;-69
2022/04/28 09:52:28;;;;;;;16.87;12.70;;;;;;;35.50;42.79;101062.53;5111406;28;20530;-69
2022/04/28 09:54:59;;;;;;;22.67;15.10;;;;;;;35.53;42.91;101066.53;5111471;28;20420;-68
2022/04/28 09:57:26;;;;;;;20.40;12.67;;;;;;;35.33;42.89;101067.50;5112779;28;20400;-69
2022/04/28 09:59:54;;;;;;;20.03;11.77;;;;;;;35.57;43.31;101074.88;5111156;28;20463;-69
2022/04/28 10:02:25;;;;;;;15.67;12.43;;;;;;;35.69;42.92;101080.69;5111208;28;20420;-70
2022/04/28 10:04:53;;;;;;;21.47;13.07;;;;;;;35.90;42.38;101087.47;5110396;28;20424;-70
2022/04/28 10:07:21;;;;;;;19.50;12.30;;;;;;;35.79;42.58;101094.09;5111159;28;20420;-71
2022/04/28 10:09:51;;;;;;;18.93;13.30;;;;;;;35.79;42.44;101086.81;5102111;28;20476;-69
2022/04/28 10:12:28;;;;;;;15.23;10.83;;;;;;;35.84;42.23;101085.91;5090187;28;20423;-70
2022/04/28 10:14:55;;;;;;;17.30;12.17;;;;;;;35.73;42.67;101087.94;5091359;28;20507;-70
2022/04/28 10:17:25;;;;;;;14.33;11.47;;;;;;;35.73;43.50;101087.16;5098189;28;20435;-71
2022/04/28 10:19:59;;;;;;;23.53;12.10;;;;;;;35.35;43.56;101089.59;5110447;28;20491;-70
2022/04/28 10:22:33;;;;;;;22.80;10.03;;;;;;;35.73;43.32;101089.84;5103844;28;21022;-71
2022/04/28 10:33:25;;;;;;;15.70;9.70;;;;;;;35.66;42.61;101073.97;5110309;28;20442;-71
2022/04/28 10:35:52;;;;;;;16.27;9.63;;;;;;;35.86;42.55;101083.75;5108678;28;20442;-69
2022/04/28 10:38:30;;;;;;;16.70;9.17;;;;;;;35.92;42.30;101082.66;5109144;28;20947;-70
2022/04/28 10:41:07;;;;;;;11.73;8.60;;;;;;;36.01;41.75;101078.22;5108675;28;20461;-72
2022/04/28 10:43:33;;;;;;;21.10;14.40;;;;;;;35.95;42.37;101070.47;5110114;28;20419;-72
2022/04/28 10:46:06;;;;;;;15.47;10.23;;;;;;;35.77;42.81;101066.56;5110444;28;20408;-71
2022/04/28 10:48:42;;;;;;;11.43;9.47;;;;;;;35.88;42.84;101061.88;5109927;28;20555;-70
2022/04/28 10:51:15;;;;;;;15.90;9.20;;;;;;;36.26;42.05;101066.28;5109538;28;20893;-70
2022/04/28 10:54:09;;;;;;;13.93;8.60;;;;;;;36.21;41.54;101062.84;5109711;28;20435;-69
2022/04/28 10:57:20;;;;;;;11.37;7.97;;;;;;;36.23;40.91;101047.19;5109649;28;20461;-68
2022/04/28 10:59:41;;;;;;;14.20;9.90;;;;;;;36.31;41.11;101044.63;5105631;28;20826;-69
2022/04/28 11:02:16;;;;;;;10.40;7.83;;;;;;;36.44;41.27;101042.31;5107996;28;20510;-70
2022/04/28 11:04:55;;;;;;;14.77;9.33;;;;;;;36.53;41.61;101054.09;5108043;28;20423;-71
2022/04/28 11:07:28;;;;;;;13.03;9.40;;;;;;;36.53;41.40;101051.41;5108702;28;20411;-72
2022/04/28 11:09:58;;;;;;;18.10;8.77;;;;;;;36.68;41.21;101061.19;5108136;28;20423;-70
2022/04/28 11:12:31;;;;;;;23.13;8.93;;;;;;;36.88;40.69;101051.97;5108281;28;20451;-69
2022/04/28 11:15:02;;;;;;;14.40;8.80;;;;;;;36.88;40.16;101057.38;5105584;28;20477;-70
2022/04/28 11:17:31;;;;;;;18.50;9.00;;;;;;;36.87;39.68;101056.59;5113673;28;20447;-70
2022/04/28 11:20:12;;;;;;;14.37;10.37;;;;;;;36.79;39.91;101044.53;5105186;28;20459;-69
2022/04/28 11:22:47;;;;;;;20.00;9.13;;;;;;;36.39;40.80;101045.91;5124784;27;20431;-72
2022/04/28 11:25:15;;;;;;;14.40;8.00;;;;;;;36.38;41.11;101044.25;5095471;28;20435;-71
2022/04/28 11:27:44;;;;;;;11.60;8.27;;;;;;;36.01;41.25;101040.41;5112525;28;20419;-71
2022/04/28 11:30:13;;;;;;;11.20;7.50;;;;;;;36.15;41.25;101042.41;5100232;28;20836;-74
2022/04/28 11:32:49;;;;;;;14.83;9.20;;;;;;;36.43;41.54;101033.41;5093334;28;20822;-71
2022/04/28 11:35:16;;;;;;;19.60;10.53;;;;;;;36.28;41.42;101020.09;5093589;28;20432;-72
2022/04/28 11:37:42;;;;;;;10.10;7.43;;;;;;;36.25;41.51;101028.78;5096204;28;20432;-71
2022/04/28 11:40:13;;;;;;;21.53;11.40;;;;;;;36.02;42.59;101033.13;5113356;28;20482;-71
2022/04/28 11:42:41;;;;;;;15.87;9.10;;;;;;;36.10;42.13;101039.78;5112412;28;20461;-68
2022/04/28 11:45:08;;;;;;;14.40;10.47;;;;;;;36.31;42.06;101033.03;5097012;28;20448;-68
2022/04/28 11:47:45;;;;;;;11.00;8.03;;;;;;;36.44;42.07;101026.91;5113604;28;20975;-71
2022/04/28 11:50:23;;;;;;;14.60;11.23;;;;;;;36.35;42.16;101004.34;5107210;28;20424;-71
2022/04/28 11:53:04;;;;;;;16.60;8.60;;;;;;;36.53;41.26;101011.66;5108924;27;20856;-70
2022/04/28 11:55:31;;;;;;;14.23;8.17;;;;;;;36.06;42.31;101010.66;5111708;28;20416;-72
2022/04/28 11:57:58;;;;;;;14.03;8.23;;;;;;;36.50;41.79;101006.84;5111647;28;20450;-74
2022/04/28 12:00:27;;;;;;;14.10;8.07;;;;;;;35.93;43.41;101007.84;5111501;28;20459;-74
2022/04/28 12:02:55;;;;;;;13.10;7.77;;;;;;;36.29;42.51;101009.00;5110531;28;20452;-75
2022/04/28 12:05:25;;;;;;;14.13;8.30;;;;;;;36.39;42.36;101024.28;5111588;28;20424;-72
2022/04/28 12:07:53;;;;;;;12.20;7.13;;;;;;;36.46;41.67;101010.41;5111950;28;20424;-75
2022/04/28 12:16:02;;;;;;;22.30;12.50;;;;;;;36.60;42.17;100981.56;5098829;28;20801;-72
2022/04/28 12:21:15;;;;;;;17.77;10.80;;;;;;;36.70;42.85;100986.81;5113768;28;20395;-72
2022/04/28 12:23:43;;;;;;;16.10;10.30;;;;;;;36.71;42.63;100976.78;5104274;28;20815;-74
2022/04/28 12:26:11;;;;;;;15.20;9.50;;;;;;;36.44;42.71;100978.28;5107232;27;20424;-72
2022/04/28 12:28:44;;;;;;;12.53;7.43;;;;;;;36.56;41.83;100969.75;5105956;28;20487;-68
2022/04/28 12:31:15;;;;;;;11.40;8.13;;;;;;;36.49;42.43;100958.50;5112934;28;20419;-74
2022/04/28 12:33:45;;;;;;;11.80;7.80;;;;;;;36.72;41.83;100956.81;5112825;28;20475;-72
2022/04/28 12:36:14;;;;;;;11.20;7.30;;;;;;;36.66;42.52;100941.75;5114289;28;20465;-72
2022/04/28 12:38:45;;;;;;;11.90;7.83;;;;;;;36.84;42.61;100941.72;5112641;28;20431;-73
2022/04/28 12:41:27;;;;;;;13.83;8.83;;;;;;;36.95;42.09;100936.94;5112656;28;20478;-73
2022/04/28 12:43:58;;;;;;;13.00;8.40;;;;;;;36.93;41.57;100944.56;5113583;28;20469;-74
2022/04/28 12:46:39;;;;;;;11.30;7.70;;;;;;;37.04;42.29;100928.97;5114061;28;20411;-73
2022/04/28 12:49:10;;;;;;;15.00;6.97;;;;;;;36.81;42.80;100928.78;5111913;28;20822;-73
2022/04/28 12:51:47;;;;;;;12.00;7.40;;;;;;;36.71;42.44;100925.44;5109979;28;20461;-71
2022/04/28 12:54:27;;;;;;;10.40;6.60;;;;;;;37.01;42.04;100922.22;5101640;28;20424;-72
2022/04/28 12:56:57;;;;;;;11.50;7.60;;;;;;;37.19;41.47;100917.84;5109947;28;20432;-73
2022/04/28 12:59:27;;;;;;;13.27;5.13;;;;;;;37.22;41.40;100913.75;5110530;28;20459;-72
2022/04/28 13:01:54;;;;;;;15.97;6.63;;;;;;;37.07;41.55;100910.22;5111583;28;20436;-72
2022/04/28 13:04:22;;;;;;;10.43;6.60;;;;;;;37.18;41.52;100907.34;5111890;28;20432;-73
2022/04/28 13:06:50;;;;;;;12.87;8.37;;;;;;;37.28;41.01;100905.25;5111273;28;20451;-71
2022/04/28 13:09:18;;;;;;;12.20;6.93;;;;;;;36.92;42.24;100897.00;5104662;28;20428;-77
2022/04/28 13:11:46;;;;;;;13.23;7.80;;;;;;;37.04;41.44;100886.50;5109747;28;20777;-72
2022/04/28 13:14:17;;;;;;;11.50;7.90;;;;;;;37.13;41.44;100897.41;5107139;28;20477;-73
2022/04/28 13:16:44;;;;;;;9.87;5.90;;;;;;;37.27;41.42;100894.72;5093476;28;20427;-72
2022/04/28 13:19:11;;;;;;;11.20;6.20;;;;;;;37.16;40.96;100896.03;5111367;28;20454;-71
2022/04/28 13:21:39;;;;;;;30.30;13.20;;;;;;;37.26;41.41;100893.94;5111316;28;20412;-72
2022/04/28 13:24:09;;;;;;;33.10;10.27;;;;;;;37.37;41.49;100899.94;5104132;28;20432;-72
2022/04/28 13:26:35;;;;;;;30.30;11.50;;;;;;;37.48;40.99;100898.66;5109061;28;20489;-70
2022/04/28 13:29:02;;;;;;;13.37;6.57;;;;;;;37.64;41.30;100891.81;5108519;28;21015;-72
2022/04/28 13:31:28;;;;;;;13.50;7.10;;;;;;;37.61;40.29;100892.41;5111606;28;20535;-72
2022/04/28 13:33:55;;;;;;;10.67;6.00;;;;;;;37.34;40.91;100885.13;5112421;28;20431;-72
2022/04/28 13:36:22;;;;;;;13.30;6.17;;;;;;;37.54;40.55;100883.91;5092841;28;20424;-71
2022/04/28 13:38:48;;;;;;;10.53;6.37;;;;;;;37.67;40.76;100889.59;5103225;28;20443;-71
2022/04/28 13:41:15;;;;;;;10.10;7.20;;;;;;;37.75;40.74;100876.16;5093078;28;20424;-73
2022/04/28 13:43:42;;;;;;;8.30;5.57;;;;;;;37.65;40.67;100873.66;5109464;28;20455;-73
2022/04/28 13:46:11;;;;;;;15.90;9.10;;;;;;;37.71;40.74;100880.56;5110310;28;20499;-72
2022/04/28 13:48:37;;;;;;;11.30;7.23;;;;;;;37.59;40.79;100872.97;5111984;28;20431;-73
2022/04/28 13:51:05;;;;;;;12.37;7.70;;;;;;;37.66;40.29;100869.84;5109567;28;20877;-73
2022/04/28 13:53:33;;;;;;;10.13;7.30;;;;;;;37.63;40.69;100868.56;5111171;28;20444;-72
2022/04/28 13:56:01;;;;;;;11.97;8.20;;;;;;;37.50;41.00;100873.97;5110093;28;21047;-73
2022/04/28 13:58:28;;;;;;;15.87;6.40;;;;;;;37.48;41.15;100877.00;5110771;28;20446;-72
2022/04/28 14:00:55;;;;;;;16.07;6.70;;;;;;;37.52;41.23;100871.78;5109113;28;20494;-72
2022/04/28 14:03:23;;;;;;;10.77;6.53;;;;;;;37.63;40.26;100863.16;5109516;28;20412;-73
2022/04/28 14:05:51;;;;;;;9.93;6.93;;;;;;;37.69;40.19;100866.56;5110575;28;20392;-73
2022/04/28 14:08:18;;;;;;;15.17;7.33;;;;;;;37.68;41.17;100872.25;5109384;28;20432;-72
2022/04/28 14:10:45;;;;;;;14.27;7.80;;;;;;;37.78;41.01;100870.13;5110029;28;20416;-72
2022/04/28 14:13:11;;;;;;;15.00;8.03;;;;;;;37.87;40.64;100862.91;5110963;28;20446;-72
2022/04/28 14:15:38;;;;;;;16.43;7.30;;;;;;;37.73;40.65;100861.31;5111149;28;20956;-73
2022/04/28 14:18:07;;;;;;;9.10;5.80;;;;;;;37.54;40.20;100856.03;5111241;28;20420;-73
2022/04/28 14:20:34;;;;;;;10.77;7.13;;;;;;;37.60;40.78;100855.63;5112018;28;20470;-73
2022/04/28 14:23:01;;;;;;;11.70;6.47;;;;;;;37.54;40.24;100853.34;5111039;28;20452;-72
2022/04/28 14:25:27;;;;;;;9.77;5.50;;;;;;;37.70;40.52;100851.13;5110970;28;20420;-72
2022/04/28 14:27:54;;;;;;;10.60;7.00;;;;;;;37.82;40.40;100854.13;5110944;28;20426;-72
2022/04/28 14:30:20;;;;;;;11.57;7.07;;;;;;;37.83;39.55;100848.38;5110859;28;20476;-73
2022/04/28 14:32:46;;;;;;;14.40;9.30;;;;;;;37.86;40.11;100847.75;5111140;28;20439;-72
2022/04/28 14:35:13;;;;;;;13.50;5.93;;;;;;;37.82;40.90;100854.13;5110889;28;20855;-71
2022/04/28 14:37:41;;;;;;;11.13;5.97;;;;;;;37.56;40.95;100846.50;5110795;28;20412;-72
2022/04/28 14:40:10;;;;;;;10.67;6.00;;;;;;;37.41;40.92;100846.84;5110668;28;20475;-72
2022/04/28 14:42:36;;;;;;;12.40;6.33;;;;;;;37.68;40.16;100848.69;5111057;28;20412;-73
2022/04/28 14:45:04;;;;;;;11.13;5.90;;;;;;;37.59;40.88;100842.41;5110726;28;20413;-72
2022/04/28 14:47:30;;;;;;;11.03;5.30;;;;;;;37.54;40.82;100837.91;5111044;28;20423;-72
2022/04/28 14:52:40;;;;;;;11.63;6.93;;;;;;;37.87;39.77;100843.16;5116211;28;20764;-73
2022/04/28 14:55:09;;;;;;;9.73;5.47;;;;;;;38.13;39.30;100849.59;5115086;28;20424;-73
2022/04/28 14:57:38;;;;;;;15.80;5.70;;;;;;;38.13;39.58;100849.59;5114753;28;20862;-73
2022/04/28 15:00:10;;;;;;;13.63;6.13;;;;;;;38.17;39.49;100845.13;5114635;28;20903;-72
2022/04/28 15:02:37;;;;;;;16.53;6.80;;;;;;;38.03;38.81;100833.56;5116130;28;20392;-72
2022/04/28 15:05:04;;;;;;;9.47;5.90;;;;;;;37.77;39.42;100846.06;5115968;28;20777;-72
2022/04/28 15:07:30;;;;;;;11.53;5.27;;;;;;;37.90;40.03;100839.84;5114589;28;20404;-71
2022/04/28 15:09:56;;;;;;;10.50;7.20;;;;;;;37.92;39.37;100837.63;5114558;28;20803;-73
2022/04/28 15:12:23;;;;;;;15.20;6.90;;;;;;;38.01;39.30;100832.28;5114485;28;20458;-73
2022/04/28 15:14:52;;;;;;;14.67;6.20;;;;;;;37.95;39.48;100844.34;5115829;28;20400;-71
2022/04/28 15:17:18;;;;;;;8.80;5.67;;;;;;;38.12;38.95;100842.56;5114450;28;20419;-71
2022/04/28 15:19:44;;;;;;;11.77;7.40;;;;;;;38.31;38.18;100837.00;5114324;28;20485;-70
2022/04/28 15:22:10;;;;;;;14.00;5.40;;;;;;;38.49;38.17;100845.19;5114383;28;20416;-72
2022/04/28 15:24:37;;;;;;;15.63;7.80;;;;;;;38.65;38.09;100832.84;5115591;28;20959;-71
2022/04/28 15:27:03;;;;;;;10.57;6.50;;;;;;;38.63;37.79;100838.59;5114269;28;20420;-72
2022/04/28 15:29:30;;;;;;;8.43;6.67;;;;;;;38.76;38.18;100841.56;5114158;28;20412;-71
2022/04/28 15:31:56;;;;;;;11.53;6.33;;;;;;;38.29;38.41;100838.38;5114083;28;20508;-76
2022/04/28 15:34:22;;;;;;;19.93;8.20;;;;;;;38.38;37.84;100839.25;5110636;28;20443;-71
2022/04/28 15:36:48;;;;;;;10.27;6.90;;;;;;;38.62;37.92;100834.28;5098255;28;20431;-71
2022/04/28 15:39:19;;;;;;;13.53;7.20;;;;;;;38.74;37.30;100841.06;5093408;28;20480;-72
2022/04/28 15:41:46;;;;;;;8.90;6.43;;;;;;;38.82;36.58;100837.59;5093430;28;20420;-71
2022/04/28 15:44:12;;;;;;;12.13;5.07;;;;;;;38.92;36.61;100823.75;5093386;28;20554;-73
2022/04/28 15:46:39;;;;;;;9.50;6.00;;;;;;;39.10;36.44;100827.31;5093508;28;20423;-73
2022/04/28 15:49:07;;;;;;;10.73;6.87;;;;;;;39.09;36.71;100829.22;5111609;27;20439;-70
2022/04/28 15:51:34;;;;;;;14.37;10.07;;;;;;;39.20;36.84;100829.75;5113321;28;20498;-71
2022/04/28 15:54:01;;;;;;;13.43;7.40;;;;;;;39.20;36.57;100824.34;5112998;28;20525;-70
2022/04/28 15:56:27;;;;;;;9.37;6.30;;;;;;;39.26;36.59;100828.50;5113192;28;20461;-71
2022/04/28 15:58:53;;;;;;;16.87;8.33;;;;;;;38.73;36.98;100831.31;5112899;28;20424;-70
2022/04/28 16:01:19;;;;;;;10.67;7.43;;;;;;;38.68;37.08;100824.91;5112480;28;20447;-71
2022/04/28 16:03:49;;;;;;;11.17;7.13;;;;;;;38.78;37.01;100825.75;5112818;27;20833;-72
2022/04/28 16:06:17;;;;;;;13.93;6.40;;;;;;;38.90;35.99;100828.69;5111716;28;20600;-71
2022/04/28 16:08:44;;;;;;;9.00;5.40;;;;;;;39.00;36.19;100827.59;5111947;28;20428;-72
2022/04/28 16:11:11;;;;;;;9.80;5.87;;;;;;;38.68;36.20;100826.81;5111750;28;20577;-71
2022/04/28 16:13:38;;;;;;;9.40;7.10;;;;;;;38.71;35.93;100831.59;5111638;28;21007;-72
2022/04/28 16:16:05;;;;;;;10.00;5.50;;;;;;;38.79;35.39;100835.50;5111812;28;20518;-72
2022/04/28 16:18:33;;;;;;;13.70;5.60;;;;;;;38.66;35.97;100832.53;5111715;28;20435;-71
2022/04/28 16:20:59;;;;;;;9.97;5.43;;;;;;;38.80;35.91;100831.69;5111312;28;20471;-70
2022/04/28 16:23:25;;;;;;;12.10;7.13;;;;;;;39.04;36.26;100828.56;5111567;28;20457;-71
2022/04/28 16:25:51;;;;;;;13.57;6.83;;;;;;;39.06;36.04;100837.22;5111433;28;20549;-71
2022/04/28 16:28:17;;;;;;;11.83;6.00;;;;;;;38.69;36.05;100845.47;5111448;28;20408;-71
2022/04/28 16:30:44;;;;;;;10.10;6.40;;;;;;;38.51;35.97;100845.72;5111265;28;20447;-72
2022/04/28 16:33:10;;;;;;;12.23;5.87;;;;;;;38.43;36.70;100836.44;5105560;28;20437;-71
2022/04/28 16:35:37;;;;;;;10.40;6.73;;;;;;;38.76;36.62;100846.97;5111056;28;20424;-71
2022/04/28 16:38:05;;;;;;;12.97;6.53;;;;;;;38.60;35.97;100844.63;5111221;28;20428;-73
2022/04/28 16:40:32;;;;;;;11.43;5.57;;;;;;;38.61;36.46;100853.56;5112370;28;20483;-72
2022/04/28 16:42:59;;;;;;;10.27;5.00;;;;;;;38.53;36.16;100838.84;5112622;28;20420;-72
2022/04/28 16:45:25;;;;;;;13.67;7.47;;;;;;;38.74;36.22;100851.94;5112163;28;20453;-73
2022/04/28 16:47:52;;;;;;;10.50;5.33;;;;;;;38.89;35.36;100843.34;5111998;28;20494;-73
2022/04/28 16:50:19;;;;;;;13.00;6.67;;;;;;;38.66;35.95;100840.66;5113448;28;20412;-72
2022/04/28 16:52:45;;;;;;;13.10;5.77;;;;;;;38.41;36.27;100852.19;5111788;28;20431;-72
2022/04/28 16:55:13;;;;;;;8.50;5.40;;;;;;;38.05;36.42;100852.22;5111741;28;20477;-72
2022/04/28 16:57:40;;;;;;;9.50;5.90;;;;;;;38.33;36.18;100859.16;5111699;28;20420;-73
2022/04/28 17:00:09;;;;;;;11.57;6.20;;;;;;;38.27;36.04;100852.25;5111647;28;20456;-71
2022/04/28 17:05:25;;;;;;;14.40;6.10;;;;;;;38.63;35.85;100863.00;5113981;28;20910;-71
2022/04/28 17:07:52;;;;;;;13.10;6.83;;;;;;;38.33;36.70;100861.06;5112264;28;20783;-71
2022/04/28 17:10:19;;;;;;;13.57;7.10;;;;;;;38.58;35.74;100855.00;5112160;28;20404;-71
2022/04/28 17:12:46;;;;;;;18.10;7.20;;;;;;;38.63;36.39;100859.50;5111844;28;20412;-71
2022/04/28 17:15:13;;;;;;;9.17;5.40;;;;;;;38.80;35.74;100861.53;5110670;28;20523;-70
2022/04/28 17:17:40;;;;;;;21.37;9.47;;;;;;;38.57;35.52;100864.25;5112137;28;20511;-69
2022/04/28 17:20:08;;;;;;;33.30;24.97;;;;;;;38.68;35.70;100862.06;5111951;28;20510;-71
2022/04/28 17:22:37;;;;;;;18.10;12.53;;;;;;;38.61;35.69;100870.66;5113008;28;20458;-69
2022/04/28 17:25:07;;;;;;;70.67;46.37;;;;;;;38.59;35.86;100867.44;5111962;28;20973;-69
2022/04/28 17:27:34;;;;;;;79.00;53.30;;;;;;;38.71;35.77;100875.00;5108513;28;20424;-69
2022/04/28 17:30:00;;;;;;;85.40;47.87;;;;;;;38.44;36.21;100884.88;5111103;28;20934;-69
2022/04/28 17:32:26;;;;;;;41.67;29.50;;;;;;;38.32;36.14;100879.22;5111599;28;20440;-69
2022/04/28 17:34:53;;;;;;;44.67;34.97;;;;;;;38.07;36.68;100887.94;5108607;28;20424;-69
2022/04/28 17:37:19;;;;;;;42.23;29.30;;;;;;;38.22;36.30;100894.88;5111735;28;20923;-68
2022/04/28 17:39:45;;;;;;;33.93;23.10;;;;;;;38.11;36.91;100905.16;5112669;28;20836;-71
2022/04/28 17:42:11;;;;;;;34.83;17.80;;;;;;;38.18;36.24;100902.81;5111677;28;20465;-71
2022/04/28 17:44:38;;;;;;;58.97;38.47;;;;;;;38.33;36.02;100902.50;5103570;28;20807;-69
2022/04/28 17:47:04;;;;;;;56.83;34.67;;;;;;;38.36;35.47;100909.19;5108303;28;20477;-69
2022/04/28 17:49:31;;;;;;;58.73;35.63;;;;;;;38.21;35.65;100912.25;5112890;28;20958;-69
2022/04/28 17:51:58;;;;;;;41.43;23.47;;;;;;;38.20;35.04;100918.78;5109818;28;20837;-69
2022/04/28 17:54:24;;;;;;;42.60;24.17;;;;;;;38.20;35.50;100921.50;5094830;28;20466;-68
2022/04/28 17:59:53;;;;;;;57.27;37.67;;;;;;;38.26;35.81;100929.22;5110633;28;20446;-71
2022/04/28 18:02:24;;;;;;;36.30;19.60;;;;;;;38.24;35.57;100933.31;5105979;28;20439;-69
2022/04/28 18:04:51;;;;;;;94.30;69.83;;;;;;;38.08;35.88;100932.88;5110196;28;20419;-69
2022/04/28 18:07:18;;;;;;;97.20;66.97;;;;;;;38.25;35.38;100927.59;5109626;28;20424;-69
2022/04/28 18:09:45;;;;;;;87.93;61.57;;;;;;;38.36;35.56;100934.38;5100328;28;20472;-69
2022/04/28 18:12:11;;;;;;;66.67;48.17;;;;;;;38.47;35.85;100926.03;5103662;28;20419;-68
2022/04/28 18:14:38;;;;;;;26.50;19.23;;;;;;;38.43;35.98;100934.78;5090943;28;20420;-71
2022/04/28 18:17:05;;;;;;;22.10;16.50;;;;;;;38.45;36.31;100939.88;5110352;28;20444;-71
2022/04/28 18:19:34;;;;;;;26.40;17.87;;;;;;;38.40;36.50;100943.50;5097371;22;20907;-69
2022/04/28 18:22:00;;;;;;;18.30;10.30;;;;;;;38.26;36.93;100942.78;5071170;28;20879;-70
2022/04/28 18:24:26;;;;;;;17.70;9.60;;;;;;;38.25;36.96;100943.06;5071608;28;20493;-69
2022/04/28 18:26:55;;;;;;;17.67;10.47;;;;;;;38.26;37.62;100940.06;5070386;28;20520;-70
2022/04/28 18:29:22;;;;;;;16.93;8.93;;;;;;;38.09;38.07;100937.97;5070506;28;20414;-72
2022/04/28 18:31:48;;;;;;;21.03;12.73;;;;;;;38.01;38.57;100943.31;5063324;28;20450;-69